PWSweather.com
Personal Weather Stations
Station Observations

Acton, CA 93510

Lat: 34.47703, Lon: -118.17483

Elevation: 2900

Station Type: Davis Vantage Pro 2

http://www.actonastro.com/weather/current.php

Latest ConditionsUpdated 10:11:58 PM PDT Friday, Jun 24, 2016
Currently Today's Max Today's Min Today's Average
Temperature 72.5°F22.5°C 95.6°F35.3°C 60.7°F15.9°C 80.1°F26.7°C
Dew Point 31.5°F-0.3°C 38.5°F3.6°C 14.1°F-9.9°C 25.6°F-3.6°C
Winds 1.0 mph NW1.6 kmh NW 14.0 mph WSW22.5 kmh WSW - 2.9 mph 4.7 kmh
Wind Gusts 2.0 mph3.2 kmh 21.0 mph33.8 kmh - -
Humidity 22% 22% 7% 14%
Pressure 29.66 in1004.4 mb 29.73 in1006.8 mb 29.62 in1003.0 mb -
Hour Temp Dew Point Humidity Winds Wind Gusts Pressure Precip Precip Rate Daily Precip Total
10:11 PM 72.5°F22.5°C 31.5°F-0.3°C 22% 1.0 mph NW1.6 kmh NW 2.0 mph3.2 kmh 29.66 in1004.4 mb 0.00 in0.0 mm 0.00 in0.0 mm 0.00 in0.0 mm
10:06 PM 72.8°F22.7°C 31.7°F-0.2°C 22% 1.0 mph NW1.6 kmh NW 1.0 mph1.6 kmh 29.66 in1004.4 mb 0.00 in0.0 mm 0.00 in0.0 mm 0.00 in0.0 mm
10:01 PM 73.3°F22.9°C 32.2°F0.1°C 22% 1.0 mph NW1.6 kmh NW 2.0 mph3.2 kmh 29.66 in1004.4 mb 0.00 in0.0 mm 0.00 in0.0 mm 0.00 in0.0 mm
09:56 PM 73.9°F23.3°C 31.5°F-0.3°C 21% Calm Calm 3.0 mph4.8 kmh 29.66 in1004.4 mb 0.00 in0.0 mm 0.00 in0.0 mm 0.00 in0.0 mm
09:51 PM 74.2°F23.4°C 31.7°F-0.2°C 21% 1.0 mph NW1.6 kmh NW 4.0 mph6.4 kmh 29.66 in1004.4 mb 0.00 in0.0 mm 0.00 in0.0 mm 0.00 in0.0 mm
09:46 PM 74.6°F23.7°C 32.1°F0.1°C 21% 3.0 mph NW4.8 kmh NW 4.0 mph6.4 kmh 29.66 in1004.4 mb 0.00 in0.0 mm 0.00 in0.0 mm 0.00 in0.0 mm
09:41 PM 74.9°F23.8°C 32.3°F0.2°C 21% 2.0 mph NW3.2 kmh NW 4.0 mph6.4 kmh 29.65 in1004.1 mb 0.00 in0.0 mm 0.00 in0.0 mm 0.00 in0.0 mm
09:36 PM 75.1°F23.9°C 32.5°F0.3°C 21% 2.0 mph N3.2 kmh N 4.0 mph6.4 kmh 29.65 in1004.1 mb 0.00 in0.0 mm 0.00 in0.0 mm 0.00 in0.0 mm
09:31 PM 75.3°F24.1°C 32.7°F0.4°C 21% 1.0 mph W1.6 kmh W 3.0 mph4.8 kmh 29.65 in1004.1 mb 0.00 in0.0 mm 0.00 in0.0 mm 0.00 in0.0 mm
09:26 PM 75.4°F24.1°C 32.7°F0.4°C 21% Calm Calm 3.0 mph4.8 kmh 29.64 in1003.7 mb 0.00 in0.0 mm 0.00 in0.0 mm 0.00 in0.0 mm
09:21 PM 75.6°F24.2°C 34.1°F1.2°C 22% 1.0 mph W1.6 kmh W 2.0 mph3.2 kmh 29.64 in1003.7 mb 0.00 in0.0 mm 0.00 in0.0 mm 0.00 in0.0 mm
09:16 PM 76.1°F24.5°C 33.3°F0.7°C 21% 1.0 mph W1.6 kmh W 2.0 mph3.2 kmh 29.64 in1003.7 mb 0.00 in0.0 mm 0.00 in0.0 mm 0.00 in0.0 mm
09:11 PM 76.8°F24.9°C 33.9°F1.1°C 21% Calm Calm -- 29.64 in1003.7 mb 0.00 in0.0 mm 0.00 in0.0 mm 0.00 in0.0 mm
09:06 PM 77.4°F25.2°C 34.4°F1.3°C 21% 1.0 mph W1.6 kmh W 5.0 mph8.0 kmh 29.64 in1003.7 mb 0.00 in0.0 mm 0.00 in0.0 mm 0.00 in0.0 mm
09:01 PM 77.9°F25.5°C 34.8°F1.6°C 21% 1.0 mph W1.6 kmh W 5.0 mph8.0 kmh 29.64 in1003.7 mb 0.00 in0.0 mm 0.00 in0.0 mm 0.00 in0.0 mm
08:56 PM 78.1°F25.6°C 33.7°F0.9°C 20% 2.0 mph W3.2 kmh W 5.0 mph8.0 kmh 29.64 in1003.7 mb 0.00 in0.0 mm 0.00 in0.0 mm 0.00 in0.0 mm
08:51 PM 78.5°F25.8°C 34.1°F1.2°C 20% 2.0 mph W3.2 kmh W 5.0 mph8.0 kmh 29.64 in1003.7 mb 0.00 in0.0 mm 0.00 in0.0 mm 0.00 in0.0 mm
08:46 PM 78.8°F26.0°C 34.3°F1.3°C 20% 1.0 mph NW1.6 kmh NW 4.0 mph6.4 kmh 29.64 in1003.7 mb 0.00 in0.0 mm 0.00 in0.0 mm 0.00 in0.0 mm
08:41 PM 78.8°F26.0°C 33.0°F0.6°C 19% 2.0 mph NW3.2 kmh NW 4.0 mph6.4 kmh 29.63 in1003.4 mb 0.00 in0.0 mm 0.00 in0.0 mm 0.00 in0.0 mm
08:36 PM 79.2°F26.2°C 34.7°F1.5°C 20% 3.0 mph W4.8 kmh W 9.0 mph14.5 kmh 29.63 in1003.4 mb 0.00 in0.0 mm 0.00 in0.0 mm 0.00 in0.0 mm
08:31 PM 79.6°F26.4°C 35.0°F1.7°C 20% 1.0 mph SW1.6 kmh SW 9.0 mph14.5 kmh 29.63 in1003.4 mb 0.00 in0.0 mm 0.00 in0.0 mm 0.00 in0.0 mm
08:26 PM 79.8°F26.6°C 35.1°F1.7°C 20% 4.0 mph SSW6.4 kmh SSW 10.0 mph16.1 kmh 29.63 in1003.4 mb 0.00 in0.0 mm 0.00 in0.0 mm 0.00 in0.0 mm
08:21 PM 80.1°F26.7°C 35.4°F1.9°C 20% 3.0 mph NW4.8 kmh NW 10.0 mph16.1 kmh 29.63 in1003.4 mb 0.00 in0.0 mm 0.00 in0.0 mm 0.00 in0.0 mm
08:16 PM 80.7°F27.1°C 34.6°F1.4°C 19% 6.0 mph W9.7 kmh W 10.0 mph16.1 kmh 29.63 in1003.4 mb 0.00 in0.0 mm 0.00 in0.0 mm 0.00 in0.0 mm
08:11 PM 80.9°F27.2°C 34.8°F1.6°C 19% 6.0 mph WSW9.7 kmh WSW 10.0 mph16.1 kmh 29.64 in1003.7 mb 0.00 in0.0 mm 0.00 in0.0 mm 0.00 in0.0 mm
08:06 PM 81.2°F27.3°C 36.3°F2.4°C 20% 5.0 mph WNW8.0 kmh WNW 7.0 mph11.3 kmh 29.64 in1003.7 mb 0.00 in0.0 mm 0.00 in0.0 mm 0.00 in0.0 mm
08:01 PM 81.6°F27.6°C 36.6°F2.6°C 20% 1.0 mph W1.6 kmh W 10.0 mph16.1 kmh 29.64 in1003.7 mb 0.00 in0.0 mm 0.00 in0.0 mm 0.00 in0.0 mm
07:56 PM 82.0°F27.8°C 34.3°F1.3°C 18% 2.0 mph SW3.2 kmh SW 10.0 mph16.1 kmh 29.64 in1003.7 mb 0.00 in0.0 mm 0.00 in0.0 mm 0.00 in0.0 mm
07:51 PM 82.4°F28.0°C 34.6°F1.4°C 18% 3.0 mph W4.8 kmh W 10.0 mph16.1 kmh 29.64 in1003.7 mb 0.00 in0.0 mm 0.00 in0.0 mm 0.00 in0.0 mm
07:46 PM 82.6°F28.1°C 34.8°F1.6°C 18% 3.0 mph W4.8 kmh W 10.0 mph16.1 kmh 29.64 in1003.7 mb 0.00 in0.0 mm 0.00 in0.0 mm 0.00 in0.0 mm
07:41 PM 82.8°F28.2°C 36.3°F2.4°C 19% 4.0 mph WNW6.4 kmh WNW 10.0 mph16.1 kmh 29.63 in1003.4 mb 0.00 in0.0 mm 0.00 in0.0 mm 0.00 in0.0 mm
07:36 PM 83.2°F28.4°C 36.6°F2.6°C 19% 1.0 mph SSW1.6 kmh SSW 10.0 mph16.1 kmh 29.63 in1003.4 mb 0.00 in0.0 mm 0.00 in0.0 mm 0.00 in0.0 mm
07:31 PM 84.0°F28.9°C 37.3°F2.9°C 19% 1.0 mph WSW1.6 kmh WSW 11.0 mph17.7 kmh 29.63 in1003.4 mb 0.00 in0.0 mm 0.00 in0.0 mm 0.00 in0.0 mm
07:26 PM 84.5°F29.2°C 37.7°F3.2°C 19% 1.0 mph WNW1.6 kmh WNW 11.0 mph17.7 kmh 29.62 in1003.0 mb 0.00 in0.0 mm 0.00 in0.0 mm 0.00 in0.0 mm
07:21 PM 84.9°F29.4°C 36.6°F2.6°C 18% 5.0 mph W8.0 kmh W 14.0 mph22.5 kmh 29.62 in1003.0 mb 0.00 in0.0 mm 0.00 in0.0 mm 0.00 in0.0 mm
07:16 PM 85.1°F29.5°C 36.8°F2.7°C 18% 2.0 mph WSW3.2 kmh WSW 14.0 mph22.5 kmh 29.62 in1003.0 mb 0.00 in0.0 mm 0.00 in0.0 mm 0.00 in0.0 mm
07:11 PM 85.3°F29.6°C 37.0°F2.8°C 18% 2.0 mph W3.2 kmh W 14.0 mph22.5 kmh 29.64 in1003.7 mb 0.00 in0.0 mm 0.00 in0.0 mm 0.00 in0.0 mm
07:06 PM 85.9°F29.9°C 37.5°F3.1°C 18% 4.0 mph W6.4 kmh W 14.0 mph22.5 kmh 29.64 in1003.7 mb 0.00 in0.0 mm 0.00 in0.0 mm 0.00 in0.0 mm
07:01 PM 86.3°F30.2°C 37.8°F3.2°C 18% 12.0 mph WSW19.3 kmh WSW 12.0 mph19.3 kmh 29.64 in1003.7 mb 0.00 in0.0 mm 0.00 in0.0 mm 0.00 in0.0 mm
06:56 PM 86.3°F30.2°C 37.8°F3.2°C 18% 10.0 mph NNW16.1 kmh NNW 17.0 mph27.4 kmh 29.63 in1003.4 mb 0.00 in0.0 mm 0.00 in0.0 mm 0.00 in0.0 mm
06:51 PM 86.3°F30.2°C 36.3°F2.4°C 17% 4.0 mph W6.4 kmh W 17.0 mph27.4 kmh 29.63 in1003.4 mb 0.00 in0.0 mm 0.00 in0.0 mm 0.00 in0.0 mm
06:46 PM 86.5°F30.3°C 36.5°F2.5°C 17% 5.0 mph SW8.0 kmh SW 17.0 mph27.4 kmh 29.63 in1003.4 mb 0.00 in0.0 mm 0.00 in0.0 mm 0.00 in0.0 mm
06:41 PM 87.0°F30.6°C 36.9°F2.7°C 17% 5.0 mph WSW8.0 kmh WSW 17.0 mph27.4 kmh 29.63 in1003.4 mb 0.00 in0.0 mm 0.00 in0.0 mm 0.00 in0.0 mm
06:36 PM 87.2°F30.7°C 37.0°F2.8°C 17% 4.0 mph W6.4 kmh W 13.0 mph20.9 kmh 29.63 in1003.4 mb 0.00 in0.0 mm 0.00 in0.0 mm 0.00 in0.0 mm
06:31 PM 87.6°F30.9°C 37.4°F3.0°C 17% 4.0 mph SW6.4 kmh SW 13.0 mph20.9 kmh 29.63 in1003.4 mb 0.00 in0.0 mm 0.00 in0.0 mm 0.00 in0.0 mm
06:26 PM 88.0°F31.1°C 36.2°F2.3°C 16% 13.0 mph W20.9 kmh W 13.0 mph20.9 kmh 29.62 in1003.0 mb 0.00 in0.0 mm 0.00 in0.0 mm 0.00 in0.0 mm
06:21 PM 88.6°F31.4°C 35.0°F1.7°C 15% 4.0 mph SW6.4 kmh SW 13.0 mph20.9 kmh 29.62 in1003.0 mb 0.00 in0.0 mm 0.00 in0.0 mm 0.00 in0.0 mm
06:16 PM 89.0°F31.7°C 35.3°F1.8°C 15% 3.0 mph WNW4.8 kmh WNW 13.0 mph20.9 kmh 29.62 in1003.0 mb 0.00 in0.0 mm 0.00 in0.0 mm 0.00 in0.0 mm
06:11 PM 89.0°F31.7°C 33.6°F0.9°C 14% 4.0 mph W6.4 kmh W 13.0 mph20.9 kmh 29.64 in1003.7 mb 0.00 in0.0 mm 0.00 in0.0 mm 0.00 in0.0 mm
06:06 PM 89.0°F31.7°C 38.5°F3.6°C 17% 3.0 mph W4.8 kmh W 12.0 mph19.3 kmh 29.64 in1003.7 mb 0.00 in0.0 mm 0.00 in0.0 mm 0.00 in0.0 mm
06:01 PM 89.7°F32.1°C 34.1°F1.2°C 14% 2.0 mph W3.2 kmh W 12.0 mph19.3 kmh 29.64 in1003.7 mb 0.00 in0.0 mm 0.00 in0.0 mm 0.00 in0.0 mm
05:56 PM 89.9°F32.2°C 34.3°F1.3°C 14% 3.0 mph NW4.8 kmh NW 14.0 mph22.5 kmh 29.64 in1003.7 mb 0.00 in0.0 mm 0.00 in0.0 mm 0.00 in0.0 mm
05:51 PM 89.9°F32.2°C 34.3°F1.3°C 14% 1.0 mph WNW1.6 kmh WNW 14.0 mph22.5 kmh 29.64 in1003.7 mb 0.00 in0.0 mm 0.00 in0.0 mm 0.00 in0.0 mm
05:46 PM 90.1°F32.3°C 32.6°F0.3°C 13% 7.0 mph SSW11.3 kmh SSW 14.0 mph22.5 kmh 29.64 in1003.7 mb 0.00 in0.0 mm 0.00 in0.0 mm 0.00 in0.0 mm
05:41 PM 90.5°F32.5°C 32.9°F0.5°C 13% 5.0 mph SW8.0 kmh SW 14.0 mph22.5 kmh 29.64 in1003.7 mb 0.00 in0.0 mm 0.00 in0.0 mm 0.00 in0.0 mm
05:36 PM 90.5°F32.5°C 32.9°F0.5°C 13% 5.0 mph SW8.0 kmh SW 15.0 mph24.1 kmh 29.64 in1003.7 mb 0.00 in0.0 mm 0.00 in0.0 mm 0.00 in0.0 mm
05:31 PM 91.0°F32.8°C 33.3°F0.7°C 13% 3.0 mph WSW4.8 kmh WSW 15.0 mph24.1 kmh 29.64 in1003.7 mb 0.00 in0.0 mm 0.00 in0.0 mm 0.00 in0.0 mm
05:26 PM 91.4°F33.0°C 31.6°F-0.2°C 12% 3.0 mph N4.8 kmh N 16.0 mph25.7 kmh 29.64 in1003.7 mb 0.00 in0.0 mm 0.00 in0.0 mm 0.00 in0.0 mm
05:21 PM 91.0°F32.8°C 33.3°F0.7°C 13% 12.0 mph WNW19.3 kmh WNW 16.0 mph25.7 kmh 29.64 in1003.7 mb 0.00 in0.0 mm 0.00 in0.0 mm 0.00 in0.0 mm
05:16 PM 90.7°F32.6°C 33.1°F0.6°C 13% 4.0 mph WSW6.4 kmh WSW 16.0 mph25.7 kmh 29.64 in1003.7 mb 0.00 in0.0 mm 0.00 in0.0 mm 0.00 in0.0 mm
05:11 PM 91.2°F32.9°C 31.5°F-0.3°C 12% 6.0 mph WSW9.7 kmh WSW 16.0 mph25.7 kmh 29.65 in1004.1 mb 0.00 in0.0 mm 0.00 in0.0 mm 0.00 in0.0 mm
05:06 PM 91.0°F32.8°C 29.2°F-1.6°C 11% 3.0 mph SW4.8 kmh SW 12.0 mph19.3 kmh 29.65 in1004.1 mb 0.00 in0.0 mm 0.00 in0.0 mm 0.00 in0.0 mm
05:01 PM 91.4°F33.0°C 31.6°F-0.2°C 12% 6.0 mph WSW9.7 kmh WSW 16.0 mph25.7 kmh 29.65 in1004.1 mb 0.00 in0.0 mm 0.00 in0.0 mm 0.00 in0.0 mm
04:56 PM 91.2°F32.9°C 31.5°F-0.3°C 12% 2.0 mph NW3.2 kmh NW 16.0 mph25.7 kmh 29.65 in1004.1 mb 0.00 in0.0 mm 0.00 in0.0 mm 0.00 in0.0 mm
04:51 PM 91.0°F32.8°C 31.3°F-0.4°C 12% 3.0 mph W4.8 kmh W 16.0 mph25.7 kmh 29.65 in1004.1 mb 0.00 in0.0 mm 0.00 in0.0 mm 0.00 in0.0 mm
04:46 PM 91.4°F33.0°C 31.6°F-0.2°C 12% 10.0 mph SSW16.1 kmh SSW 16.0 mph25.7 kmh 29.65 in1004.1 mb 0.00 in0.0 mm 0.00 in0.0 mm 0.00 in0.0 mm
04:41 PM 91.6°F33.1°C 31.8°F-0.1°C 12% 3.0 mph W4.8 kmh W 15.0 mph24.1 kmh 29.66 in1004.4 mb 0.00 in0.0 mm 0.00 in0.0 mm 0.00 in0.0 mm
04:36 PM 91.8°F33.2°C 31.9°F-0.1°C 12% 3.0 mph WNW4.8 kmh WNW 19.0 mph30.6 kmh 29.66 in1004.4 mb 0.00 in0.0 mm 0.00 in0.0 mm 0.00 in0.0 mm
04:31 PM 92.3°F33.5°C 32.3°F0.2°C 12% 6.0 mph W9.7 kmh W 19.0 mph30.6 kmh 29.66 in1004.4 mb 0.00 in0.0 mm 0.00 in0.0 mm 0.00 in0.0 mm
04:26 PM 92.3°F33.5°C 32.3°F0.2°C 12% 5.0 mph NW8.0 kmh NW 19.0 mph30.6 kmh 29.66 in1004.4 mb 0.00 in0.0 mm 0.00 in0.0 mm 0.00 in0.0 mm
04:21 PM 92.1°F33.4°C 30.0°F-1.1°C 11% 2.0 mph SW3.2 kmh SW 19.0 mph30.6 kmh 29.66 in1004.4 mb 0.00 in0.0 mm 0.00 in0.0 mm 0.00 in0.0 mm
04:16 PM 91.8°F33.2°C 33.9°F1.1°C 13% 10.0 mph W16.1 kmh W 18.0 mph29.0 kmh 29.66 in1004.4 mb 0.00 in0.0 mm 0.00 in0.0 mm 0.00 in0.0 mm
04:11 PM 92.5°F33.6°C 32.5°F0.3°C 12% 12.0 mph SW19.3 kmh SW 18.0 mph29.0 kmh 29.66 in1004.4 mb 0.00 in0.0 mm 0.00 in0.0 mm 0.00 in0.0 mm
04:06 PM 92.5°F33.6°C 30.3°F-0.9°C 11% 4.0 mph SW6.4 kmh SW 10.0 mph16.1 kmh 29.66 in1004.4 mb 0.00 in0.0 mm 0.00 in0.0 mm 0.00 in0.0 mm
04:01 PM 92.1°F33.4°C 30.0°F-1.1°C 11% 4.0 mph SW6.4 kmh SW 14.0 mph22.5 kmh 29.66 in1004.4 mb 0.00 in0.0 mm 0.00 in0.0 mm 0.00 in0.0 mm
03:56 PM 92.1°F33.4°C 32.2°F0.1°C 12% 4.0 mph S6.4 kmh S 14.0 mph22.5 kmh 29.67 in1004.7 mb 0.00 in0.0 mm 0.00 in0.0 mm 0.00 in0.0 mm
03:51 PM 92.3°F33.5°C 32.3°F0.2°C 12% 10.0 mph SSW16.1 kmh SSW 19.0 mph30.6 kmh 29.67 in1004.7 mb 0.00 in0.0 mm 0.00 in0.0 mm 0.00 in0.0 mm
03:46 PM 92.7°F33.7°C 34.6°F1.4°C 13% 7.0 mph SW11.3 kmh SW 19.0 mph30.6 kmh 29.67 in1004.7 mb 0.00 in0.0 mm 0.00 in0.0 mm 0.00 in0.0 mm
03:41 PM 92.9°F33.8°C 32.8°F0.4°C 12% 5.0 mph WNW8.0 kmh WNW 19.0 mph30.6 kmh 29.66 in1004.4 mb 0.00 in0.0 mm 0.00 in0.0 mm 0.00 in0.0 mm
03:36 PM 93.4°F34.1°C 31.0°F-0.6°C 11% 10.0 mph W16.1 kmh W 19.0 mph30.6 kmh 29.66 in1004.4 mb 0.00 in0.0 mm 0.00 in0.0 mm 0.00 in0.0 mm
03:31 PM 94.0°F34.4°C 31.5°F-0.3°C 11% 14.0 mph W22.5 kmh W 18.0 mph29.0 kmh 29.66 in1004.4 mb 0.00 in0.0 mm 0.00 in0.0 mm 0.00 in0.0 mm
03:26 PM 94.0°F34.4°C 31.5°F-0.3°C 11% 6.0 mph NW9.7 kmh NW 19.0 mph30.6 kmh 29.66 in1004.4 mb 0.00 in0.0 mm 0.00 in0.0 mm 0.00 in0.0 mm
03:21 PM 93.8°F34.3°C 31.3°F-0.4°C 11% 7.0 mph WSW11.3 kmh WSW 19.0 mph30.6 kmh 29.66 in1004.4 mb 0.00 in0.0 mm 0.00 in0.0 mm 0.00 in0.0 mm
03:16 PM 94.0°F34.4°C 31.5°F-0.3°C 11% 7.0 mph W11.3 kmh W 19.0 mph30.6 kmh 29.66 in1004.4 mb 0.00 in0.0 mm 0.00 in0.0 mm 0.00 in0.0 mm
03:11 PM 94.0°F34.4°C 33.6°F0.9°C 12% 10.0 mph W16.1 kmh W 19.0 mph30.6 kmh 29.66 in1004.4 mb 0.00 in0.0 mm 0.00 in0.0 mm 0.00 in0.0 mm
03:06 PM 94.3°F34.6°C 31.7°F-0.2°C 11% 6.0 mph WSW9.7 kmh WSW 18.0 mph29.0 kmh 29.66 in1004.4 mb 0.00 in0.0 mm 0.00 in0.0 mm 0.00 in0.0 mm
03:01 PM 94.7°F34.8°C 32.0°F0.0°C 11% 4.0 mph WSW6.4 kmh WSW 15.0 mph24.1 kmh 29.66 in1004.4 mb 0.00 in0.0 mm 0.00 in0.0 mm 0.00 in0.0 mm
02:56 PM 94.0°F34.4°C 33.6°F0.9°C 12% 3.0 mph SW4.8 kmh SW 15.0 mph24.1 kmh 29.66 in1004.4 mb 0.00 in0.0 mm 0.00 in0.0 mm 0.00 in0.0 mm
02:51 PM 94.0°F34.4°C 31.5°F-0.3°C 11% 6.0 mph W9.7 kmh W 15.0 mph24.1 kmh 29.66 in1004.4 mb 0.00 in0.0 mm 0.00 in0.0 mm 0.00 in0.0 mm
02:46 PM 94.5°F34.7°C 31.8°F-0.1°C 11% 14.0 mph WSW22.5 kmh WSW 15.0 mph24.1 kmh 29.66 in1004.4 mb 0.00 in0.0 mm 0.00 in0.0 mm 0.00 in0.0 mm
02:41 PM 94.7°F34.8°C 34.2°F1.2°C 12% 4.0 mph S6.4 kmh S 20.0 mph32.2 kmh 29.66 in1004.4 mb 0.00 in0.0 mm 0.00 in0.0 mm 0.00 in0.0 mm
02:36 PM 94.7°F34.8°C 29.7°F-1.3°C 10% 8.0 mph SW12.9 kmh SW 20.0 mph32.2 kmh 29.66 in1004.4 mb 0.00 in0.0 mm 0.00 in0.0 mm 0.00 in0.0 mm
02:31 PM 95.4°F35.2°C 30.2°F-1.0°C 10% 6.0 mph NW9.7 kmh NW 20.0 mph32.2 kmh 29.66 in1004.4 mb 0.00 in0.0 mm 0.00 in0.0 mm 0.00 in0.0 mm
02:26 PM 94.9°F34.9°C 29.8°F-1.2°C 10% 9.0 mph NW14.5 kmh NW 20.0 mph32.2 kmh 29.66 in1004.4 mb 0.00 in0.0 mm 0.00 in0.0 mm 0.00 in0.0 mm
02:21 PM 94.5°F34.7°C 29.5°F-1.4°C 10% 4.0 mph W6.4 kmh W 14.0 mph22.5 kmh 29.66 in1004.4 mb 0.00 in0.0 mm 0.00 in0.0 mm 0.00 in0.0 mm
02:16 PM 94.7°F34.8°C 32.0°F0.0°C 11% 4.0 mph NNW6.4 kmh NNW 15.0 mph24.1 kmh 29.66 in1004.4 mb 0.00 in0.0 mm 0.00 in0.0 mm 0.00 in0.0 mm
02:11 PM 94.7°F34.8°C 32.0°F0.0°C 11% 3.0 mph W4.8 kmh W 15.0 mph24.1 kmh 29.66 in1004.4 mb 0.00 in0.0 mm 0.00 in0.0 mm 0.00 in0.0 mm
02:06 PM 94.9°F34.9°C 29.8°F-1.2°C 10% 6.0 mph W9.7 kmh W 16.0 mph25.7 kmh 29.66 in1004.4 mb 0.00 in0.0 mm 0.00 in0.0 mm 0.00 in0.0 mm
02:01 PM 94.7°F34.8°C 29.7°F-1.3°C 10% 4.0 mph S6.4 kmh S 16.0 mph25.7 kmh 29.66 in1004.4 mb 0.00 in0.0 mm 0.00 in0.0 mm 0.00 in0.0 mm
01:56 PM 94.5°F34.7°C 29.5°F-1.4°C 10% 5.0 mph W8.0 kmh W 16.0 mph25.7 kmh 29.66 in1004.4 mb 0.00 in0.0 mm 0.00 in0.0 mm 0.00 in0.0 mm
01:51 PM 94.9°F34.9°C 27.2°F-2.7°C 9% 7.0 mph NW11.3 kmh NW 16.0 mph25.7 kmh 29.66 in1004.4 mb 0.00 in0.0 mm 0.00 in0.0 mm 0.00 in0.0 mm
01:46 PM 94.9°F34.9°C 27.2°F-2.7°C 9% 3.0 mph W4.8 kmh W 14.0 mph22.5 kmh 29.66 in1004.4 mb 0.00 in0.0 mm 0.00 in0.0 mm 0.00 in0.0 mm
01:41 PM 94.7°F34.8°C 27.1°F-2.7°C 9% 3.0 mph N4.8 kmh N 21.0 mph33.8 kmh 29.66 in1004.4 mb 0.00 in0.0 mm 0.00 in0.0 mm 0.00 in0.0 mm
01:36 PM 94.7°F34.8°C 24.3°F-4.3°C 8% 2.0 mph WSW3.2 kmh WSW 21.0 mph33.8 kmh 29.66 in1004.4 mb 0.00 in0.0 mm 0.00 in0.0 mm 0.00 in0.0 mm
01:31 PM 94.9°F34.9°C 27.2°F-2.7°C 9% 4.0 mph WNW6.4 kmh WNW 21.0 mph33.8 kmh 29.66 in1004.4 mb 0.00 in0.0 mm 0.00 in0.0 mm 0.00 in0.0 mm
01:26 PM 94.9°F34.9°C 27.2°F-2.7°C 9% 7.0 mph W11.3 kmh W 21.0 mph33.8 kmh 29.67 in1004.7 mb 0.00 in0.0 mm 0.00 in0.0 mm 0.00 in0.0 mm
01:21 PM 95.1°F35.1°C 27.4°F-2.6°C 9% 6.0 mph W9.7 kmh W 16.0 mph25.7 kmh 29.67 in1004.7 mb 0.00 in0.0 mm 0.00 in0.0 mm 0.00 in0.0 mm
01:16 PM 95.4°F35.2°C 24.8°F-4.0°C 8% 4.0 mph WSW6.4 kmh WSW 13.0 mph20.9 kmh 29.67 in1004.7 mb 0.00 in0.0 mm 0.00 in0.0 mm 0.00 in0.0 mm
01:11 PM 95.4°F35.2°C 24.8°F-4.0°C 8% 8.0 mph SW12.9 kmh SW 13.0 mph20.9 kmh 29.67 in1004.7 mb 0.00 in0.0 mm 0.00 in0.0 mm 0.00 in0.0 mm
01:06 PM 95.1°F35.1°C 27.4°F-2.6°C 9% 10.0 mph WSW16.1 kmh WSW 13.0 mph20.9 kmh 29.67 in1004.7 mb 0.00 in0.0 mm 0.00 in0.0 mm 0.00 in0.0 mm
01:01 PM 95.6°F35.3°C 24.9°F-3.9°C 8% 5.0 mph W8.0 kmh W 13.0 mph20.9 kmh 29.67 in1004.7 mb 0.00 in0.0 mm 0.00 in0.0 mm 0.00 in0.0 mm
12:56 PM 95.6°F35.3°C 24.9°F-3.9°C 8% 5.0 mph W8.0 kmh W 13.0 mph20.9 kmh 29.67 in1004.7 mb 0.00 in0.0 mm 0.00 in0.0 mm 0.00 in0.0 mm
12:51 PM 95.6°F35.3°C 24.9°F-3.9°C 8% 5.0 mph W8.0 kmh W 12.0 mph19.3 kmh 29.67 in1004.7 mb 0.00 in0.0 mm 0.00 in0.0 mm 0.00 in0.0 mm
12:46 PM 95.4°F35.2°C 24.8°F-4.0°C 8% 3.0 mph WSW4.8 kmh WSW 12.0 mph19.3 kmh 29.67 in1004.7 mb 0.00 in0.0 mm 0.00 in0.0 mm 0.00 in0.0 mm
12:41 PM 94.9°F34.9°C 27.2°F-2.7°C 9% 3.0 mph NNE4.8 kmh NNE 12.0 mph19.3 kmh 29.68 in1005.1 mb 0.00 in0.0 mm 0.00 in0.0 mm 0.00 in0.0 mm
12:36 PM 94.9°F34.9°C 24.4°F-4.2°C 8% 3.0 mph WSW4.8 kmh WSW 12.0 mph19.3 kmh 29.68 in1005.1 mb 0.00 in0.0 mm 0.00 in0.0 mm 0.00 in0.0 mm
12:31 PM 94.7°F34.8°C 21.1°F-6.1°C 7% 3.0 mph NNW4.8 kmh NNW 12.0 mph19.3 kmh 29.68 in1005.1 mb 0.00 in0.0 mm 0.00 in0.0 mm 0.00 in0.0 mm
12:26 PM 94.5°F34.7°C 24.1°F-4.4°C 8% 2.0 mph W3.2 kmh W 12.0 mph19.3 kmh 29.68 in1005.1 mb 0.00 in0.0 mm 0.00 in0.0 mm 0.00 in0.0 mm
12:21 PM 94.5°F34.7°C 24.1°F-4.4°C 8% 10.0 mph NW16.1 kmh NW 12.0 mph19.3 kmh 29.68 in1005.1 mb 0.00 in0.0 mm 0.00 in0.0 mm 0.00 in0.0 mm
12:16 PM 94.0°F34.4°C 26.6°F-3.0°C 9% 5.0 mph WNW8.0 kmh WNW 12.0 mph19.3 kmh 29.68 in1005.1 mb 0.00 in0.0 mm 0.00 in0.0 mm 0.00 in0.0 mm
12:11 PM 94.5°F34.7°C 29.5°F-1.4°C 10% 6.0 mph NW9.7 kmh NW 12.0 mph19.3 kmh 29.67 in1004.7 mb 0.00 in0.0 mm 0.00 in0.0 mm 0.00 in0.0 mm
12:06 PM 94.3°F34.6°C 24.0°F-4.4°C 8% 9.0 mph W14.5 kmh W 12.0 mph19.3 kmh 29.67 in1004.7 mb 0.00 in0.0 mm 0.00 in0.0 mm 0.00 in0.0 mm
12:01 PM 93.8°F34.3°C 29.0°F-1.7°C 10% 3.0 mph WSW4.8 kmh WSW 8.0 mph12.9 kmh 29.67 in1004.7 mb 0.00 in0.0 mm 0.00 in0.0 mm 0.00 in0.0 mm
11:56 AM 93.4°F34.1°C 26.1°F-3.3°C 9% 5.0 mph WNW8.0 kmh WNW 10.0 mph16.1 kmh 29.68 in1005.1 mb 0.00 in0.0 mm 0.00 in0.0 mm 0.00 in0.0 mm
11:51 AM 92.9°F33.8°C 25.7°F-3.5°C 9% 5.0 mph WSW8.0 kmh WSW 10.0 mph16.1 kmh 29.68 in1005.1 mb 0.00 in0.0 mm 0.00 in0.0 mm 0.00 in0.0 mm
11:46 AM 92.5°F33.6°C 25.4°F-3.7°C 9% 2.0 mph SW3.2 kmh SW 16.0 mph25.7 kmh 29.68 in1005.1 mb 0.00 in0.0 mm 0.00 in0.0 mm 0.00 in0.0 mm
11:41 AM 92.1°F33.4°C 25.2°F-3.8°C 9% 8.0 mph W12.9 kmh W 16.0 mph25.7 kmh 29.69 in1005.4 mb 0.00 in0.0 mm 0.00 in0.0 mm 0.00 in0.0 mm
11:36 AM 92.5°F33.6°C 28.0°F-2.2°C 10% 5.0 mph WSW8.0 kmh WSW 16.0 mph25.7 kmh 29.69 in1005.4 mb 0.00 in0.0 mm 0.00 in0.0 mm 0.00 in0.0 mm
11:31 AM 92.3°F33.5°C 25.3°F-3.7°C 9% 7.0 mph SW11.3 kmh SW 16.0 mph25.7 kmh 29.69 in1005.4 mb 0.00 in0.0 mm 0.00 in0.0 mm 0.00 in0.0 mm
11:26 AM 92.1°F33.4°C 25.2°F-3.8°C 9% 2.0 mph SW3.2 kmh SW 10.0 mph16.1 kmh 29.69 in1005.4 mb 0.00 in0.0 mm 0.00 in0.0 mm 0.00 in0.0 mm
11:21 AM 92.3°F33.5°C 25.3°F-3.7°C 9% 2.0 mph WNW3.2 kmh WNW 10.0 mph16.1 kmh 29.69 in1005.4 mb 0.00 in0.0 mm 0.00 in0.0 mm 0.00 in0.0 mm
11:16 AM 91.6°F33.1°C 27.3°F-2.6°C 10% 2.0 mph W3.2 kmh W 9.0 mph14.5 kmh 29.69 in1005.4 mb 0.00 in0.0 mm 0.00 in0.0 mm 0.00 in0.0 mm
11:11 AM 91.4°F33.0°C 27.2°F-2.7°C 10% 4.0 mph NW6.4 kmh NW 10.0 mph16.1 kmh 29.69 in1005.4 mb 0.00 in0.0 mm 0.00 in0.0 mm 0.00 in0.0 mm
11:06 AM 91.4°F33.0°C 31.6°F-0.2°C 12% 5.0 mph SSW8.0 kmh SSW 10.0 mph16.1 kmh 29.69 in1005.4 mb 0.00 in0.0 mm 0.00 in0.0 mm 0.00 in0.0 mm
11:01 AM 90.5°F32.5°C 26.5°F-3.1°C 10% 4.0 mph WNW6.4 kmh WNW 10.0 mph16.1 kmh 29.69 in1005.4 mb 0.00 in0.0 mm 0.00 in0.0 mm 0.00 in0.0 mm
10:56 AM 89.7°F32.1°C 28.2°F-2.1°C 11% 3.0 mph WSW4.8 kmh WSW 10.0 mph16.1 kmh 29.69 in1005.4 mb 0.00 in0.0 mm 0.00 in0.0 mm 0.00 in0.0 mm
10:51 AM 89.7°F32.1°C 25.9°F-3.4°C 10% 3.0 mph SW4.8 kmh SW 9.0 mph14.5 kmh 29.69 in1005.4 mb 0.00 in0.0 mm 0.00 in0.0 mm 0.00 in0.0 mm
10:46 AM 89.5°F31.9°C 25.7°F-3.5°C 10% 3.0 mph S4.8 kmh S 12.0 mph19.3 kmh 29.69 in1005.4 mb 0.00 in0.0 mm 0.00 in0.0 mm 0.00 in0.0 mm
10:41 AM 89.0°F31.7°C 25.4°F-3.7°C 10% 3.0 mph SW4.8 kmh SW 12.0 mph19.3 kmh 29.69 in1005.4 mb 0.00 in0.0 mm 0.00 in0.0 mm 0.00 in0.0 mm
10:36 AM 89.0°F31.7°C 25.4°F-3.7°C 10% 4.0 mph SSW6.4 kmh SSW 12.0 mph19.3 kmh 29.69 in1005.4 mb 0.00 in0.0 mm 0.00 in0.0 mm 0.00 in0.0 mm
10:31 AM 89.3°F31.8°C 25.6°F-3.6°C 10% 5.0 mph SW8.0 kmh SW 12.0 mph19.3 kmh 29.69 in1005.4 mb 0.00 in0.0 mm 0.00 in0.0 mm 0.00 in0.0 mm
10:26 AM 89.5°F31.9°C 28.0°F-2.2°C 11% 4.0 mph SSW6.4 kmh SSW 10.0 mph16.1 kmh 29.70 in1005.8 mb 0.00 in0.0 mm 0.00 in0.0 mm 0.00 in0.0 mm
10:21 AM 88.6°F31.4°C 22.5°F-5.3°C 9% 1.0 mph W1.6 kmh W 10.0 mph16.1 kmh 29.70 in1005.8 mb 0.00 in0.0 mm 0.00 in0.0 mm 0.00 in0.0 mm
10:16 AM 88.2°F31.2°C 24.8°F-4.0°C 10% 4.0 mph SW6.4 kmh SW 10.0 mph16.1 kmh 29.70 in1005.8 mb 0.00 in0.0 mm 0.00 in0.0 mm 0.00 in0.0 mm
10:11 AM 87.8°F31.0°C 24.5°F-4.2°C 10% 3.0 mph SSW4.8 kmh SSW 10.0 mph16.1 kmh 29.69 in1005.4 mb 0.00 in0.0 mm 0.00 in0.0 mm 0.00 in0.0 mm
10:06 AM 88.0°F31.1°C 26.9°F-2.8°C 11% 5.0 mph SW8.0 kmh SW 8.0 mph12.9 kmh 29.69 in1005.4 mb 0.00 in0.0 mm 0.00 in0.0 mm 0.00 in0.0 mm
10:01 AM 88.4°F31.3°C 27.2°F-2.7°C 11% 6.0 mph SW9.7 kmh SW 8.0 mph12.9 kmh 29.69 in1005.4 mb 0.00 in0.0 mm 0.00 in0.0 mm 0.00 in0.0 mm
09:56 AM 88.4°F31.3°C 22.4°F-5.3°C 9% 2.0 mph WSW3.2 kmh WSW 6.0 mph9.7 kmh 29.70 in1005.8 mb 0.00 in0.0 mm 0.00 in0.0 mm 0.00 in0.0 mm
09:51 AM 87.6°F30.9°C 24.3°F-4.3°C 10% 1.0 mph W1.6 kmh W 7.0 mph11.3 kmh 29.70 in1005.8 mb 0.00 in0.0 mm 0.00 in0.0 mm 0.00 in0.0 mm
09:46 AM 87.2°F30.7°C 24.0°F-4.4°C 10% Calm Calm 7.0 mph11.3 kmh 29.70 in1005.8 mb 0.00 in0.0 mm 0.00 in0.0 mm 0.00 in0.0 mm
09:41 AM 86.5°F30.3°C 25.7°F-3.5°C 11% 1.0 mph WNW1.6 kmh WNW 9.0 mph14.5 kmh 29.70 in1005.8 mb 0.00 in0.0 mm 0.00 in0.0 mm 0.00 in0.0 mm
09:36 AM 85.9°F29.9°C 25.3°F-3.7°C 11% 2.0 mph SW3.2 kmh SW 9.0 mph14.5 kmh 29.70 in1005.8 mb 0.00 in0.0 mm 0.00 in0.0 mm 0.00 in0.0 mm
09:31 AM 85.3°F29.6°C 24.8°F-4.0°C 11% 2.0 mph SW3.2 kmh SW 10.0 mph16.1 kmh 29.70 in1005.8 mb 0.00 in0.0 mm 0.00 in0.0 mm 0.00 in0.0 mm
09:26 AM 85.3°F29.6°C 24.8°F-4.0°C 11% 1.0 mph SSW1.6 kmh SSW 10.0 mph16.1 kmh 29.71 in1006.1 mb 0.00 in0.0 mm 0.00 in0.0 mm 0.00 in0.0 mm
09:21 AM 85.1°F29.5°C 24.7°F-4.1°C 11% Calm Calm 10.0 mph16.1 kmh 29.71 in1006.1 mb 0.00 in0.0 mm 0.00 in0.0 mm 0.00 in0.0 mm
09:16 AM 84.9°F29.4°C 24.5°F-4.2°C 11% 2.0 mph SW3.2 kmh SW 10.0 mph16.1 kmh 29.71 in1006.1 mb 0.00 in0.0 mm 0.00 in0.0 mm 0.00 in0.0 mm
09:11 AM 85.1°F29.5°C 24.7°F-4.1°C 11% 1.0 mph WSW1.6 kmh WSW 5.0 mph8.0 kmh 29.71 in1006.1 mb 0.00 in0.0 mm 0.00 in0.0 mm 0.00 in0.0 mm
09:06 AM 84.7°F29.3°C 24.4°F-4.2°C 11% 2.0 mph W3.2 kmh W 5.0 mph8.0 kmh 29.71 in1006.1 mb 0.00 in0.0 mm 0.00 in0.0 mm 0.00 in0.0 mm
09:01 AM 84.1°F28.9°C 23.9°F-4.5°C 11% 2.0 mph S3.2 kmh S 7.0 mph11.3 kmh 29.71 in1006.1 mb 0.00 in0.0 mm 0.00 in0.0 mm 0.00 in0.0 mm
08:56 AM 83.6°F28.7°C 23.5°F-4.7°C 11% 1.0 mph WSW1.6 kmh WSW 7.0 mph11.3 kmh 29.71 in1006.1 mb 0.00 in0.0 mm 0.00 in0.0 mm 0.00 in0.0 mm
08:51 AM 83.4°F28.6°C 27.4°F-2.6°C 13% 2.0 mph S3.2 kmh S 10.0 mph16.1 kmh 29.71 in1006.1 mb 0.00 in0.0 mm 0.00 in0.0 mm 0.00 in0.0 mm
08:46 AM 82.8°F28.2°C 22.9°F-5.1°C 11% 5.0 mph SW8.0 kmh SW 10.0 mph16.1 kmh 29.71 in1006.1 mb 0.00 in0.0 mm 0.00 in0.0 mm 0.00 in0.0 mm
08:41 AM 82.6°F28.1°C 22.8°F-5.1°C 11% 2.0 mph WSW3.2 kmh WSW 10.0 mph16.1 kmh 29.71 in1006.1 mb 0.00 in0.0 mm 0.00 in0.0 mm 0.00 in0.0 mm
08:36 AM 82.4°F28.0°C 24.7°F-4.1°C 12% 2.0 mph SW3.2 kmh SW 10.0 mph16.1 kmh 29.71 in1006.1 mb 0.00 in0.0 mm 0.00 in0.0 mm 0.00 in0.0 mm
08:31 AM 82.2°F27.9°C 24.5°F-4.2°C 12% 2.0 mph SSW3.2 kmh SSW 7.0 mph11.3 kmh 29.71 in1006.1 mb 0.00 in0.0 mm 0.00 in0.0 mm 0.00 in0.0 mm
08:26 AM 81.6°F27.6°C 24.1°F-4.4°C 12% 3.0 mph SSW4.8 kmh SSW 7.0 mph11.3 kmh 29.72 in1006.4 mb 0.00 in0.0 mm 0.00 in0.0 mm 0.00 in0.0 mm
08:21 AM 81.2°F27.3°C 23.8°F-4.6°C 12% 3.0 mph W4.8 kmh W 5.0 mph8.0 kmh 29.72 in1006.4 mb 0.00 in0.0 mm 0.00 in0.0 mm 0.00 in0.0 mm
08:16 AM 80.5°F26.9°C 23.2°F-4.9°C 12% 2.0 mph SW3.2 kmh SW 5.0 mph8.0 kmh 29.72 in1006.4 mb 0.00 in0.0 mm 0.00 in0.0 mm 0.00 in0.0 mm
08:11 AM 79.4°F26.3°C 24.3°F-4.3°C 13% 1.0 mph SW1.6 kmh SW 5.0 mph8.0 kmh 29.71 in1006.1 mb 0.00 in0.0 mm 0.00 in0.0 mm 0.00 in0.0 mm
08:06 AM 78.1°F25.6°C 25.0°F-3.9°C 14% 2.0 mph WSW3.2 kmh WSW 5.0 mph8.0 kmh 29.71 in1006.1 mb 0.00 in0.0 mm 0.00 in0.0 mm 0.00 in0.0 mm
08:01 AM 76.7°F24.8°C 25.6°F-3.6°C 15% 3.0 mph ENE4.8 kmh ENE 3.0 mph4.8 kmh 29.71 in1006.1 mb 0.00 in0.0 mm 0.00 in0.0 mm 0.00 in0.0 mm
07:56 AM 75.6°F24.2°C 23.0°F-5.0°C 14% 1.0 mph ENE1.6 kmh ENE 1.0 mph1.6 kmh 29.71 in1006.1 mb 0.00 in0.0 mm 0.00 in0.0 mm 0.00 in0.0 mm
07:51 AM 74.7°F23.7°C 24.0°F-4.4°C 15% 1.0 mph ENE1.6 kmh ENE 2.0 mph3.2 kmh 29.71 in1006.1 mb 0.00 in0.0 mm 0.00 in0.0 mm 0.00 in0.0 mm
07:46 AM 74.4°F23.6°C 22.1°F-5.5°C 14% 1.0 mph ENE1.6 kmh ENE 2.0 mph3.2 kmh 29.71 in1006.1 mb 0.00 in0.0 mm 0.00 in0.0 mm 0.00 in0.0 mm
07:41 AM 74.4°F23.6°C 23.7°F-4.6°C 15% Calm Calm -- 29.72 in1006.4 mb 0.00 in0.0 mm 0.00 in0.0 mm 0.00 in0.0 mm
07:36 AM 74.0°F23.3°C 21.8°F-5.7°C 14% Calm Calm 2.0 mph3.2 kmh 29.72 in1006.4 mb 0.00 in0.0 mm 0.00 in0.0 mm 0.00 in0.0 mm
07:31 AM 73.2°F22.9°C 21.2°F-6.0°C 14% Calm Calm -- 29.72 in1006.4 mb 0.00 in0.0 mm 0.00 in0.0 mm 0.00 in0.0 mm
07:26 AM 72.1°F22.3°C 20.3°F-6.5°C 14% 1.0 mph ENE1.6 kmh ENE 2.0 mph3.2 kmh 29.72 in1006.4 mb 0.00 in0.0 mm 0.00 in0.0 mm 0.00 in0.0 mm
07:21 AM 70.9°F21.6°C 22.5°F-5.3°C 16% Calm Calm 1.0 mph1.6 kmh 29.72 in1006.4 mb 0.00 in0.0 mm 0.00 in0.0 mm 0.00 in0.0 mm
07:16 AM 70.1°F21.2°C 21.8°F-5.7°C 16% 1.0 mph ENE1.6 kmh ENE 6.0 mph9.7 kmh 29.72 in1006.4 mb 0.00 in0.0 mm 0.00 in0.0 mm 0.00 in0.0 mm
07:11 AM 68.9°F20.5°C 20.9°F-6.2°C 16% 5.0 mph ENE8.0 kmh ENE 6.0 mph9.7 kmh 29.72 in1006.4 mb 0.00 in0.0 mm 0.00 in0.0 mm 0.00 in0.0 mm
07:06 AM 68.1°F20.1°C 20.2°F-6.6°C 16% 2.0 mph E3.2 kmh E 4.0 mph6.4 kmh 29.72 in1006.4 mb 0.00 in0.0 mm 0.00 in0.0 mm 0.00 in0.0 mm
07:01 AM 67.4°F19.7°C 21.1°F-6.1°C 17% Calm Calm 4.0 mph6.4 kmh 29.72 in1006.4 mb 0.00 in0.0 mm 0.00 in0.0 mm 0.00 in0.0 mm
06:56 AM 66.6°F19.2°C 21.8°F-5.7°C 18% 2.0 mph N3.2 kmh N 3.0 mph4.8 kmh 29.72 in1006.4 mb 0.00 in0.0 mm 0.00 in0.0 mm 0.00 in0.0 mm
06:51 AM 66.8°F19.3°C 21.9°F-5.6°C 18% Calm Calm 1.0 mph1.6 kmh 29.72 in1006.4 mb 0.00 in0.0 mm 0.00 in0.0 mm 0.00 in0.0 mm
06:46 AM 67.4°F19.7°C 21.1°F-6.1°C 17% Calm Calm 4.0 mph6.4 kmh 29.72 in1006.4 mb 0.00 in0.0 mm 0.00 in0.0 mm 0.00 in0.0 mm
06:41 AM 66.8°F19.3°C 20.6°F-6.3°C 17% 2.0 mph NW3.2 kmh NW 4.0 mph6.4 kmh 29.72 in1006.4 mb 0.00 in0.0 mm 0.00 in0.0 mm 0.00 in0.0 mm
06:36 AM 65.5°F18.6°C 19.5°F-6.9°C 17% 2.0 mph NW3.2 kmh NW 4.0 mph6.4 kmh 29.72 in1006.4 mb 0.00 in0.0 mm 0.00 in0.0 mm 0.00 in0.0 mm
06:31 AM 64.8°F18.2°C 20.3°F-6.5°C 18% Calm Calm 4.0 mph6.4 kmh 29.72 in1006.4 mb 0.00 in0.0 mm 0.00 in0.0 mm 0.00 in0.0 mm
06:26 AM 64.3°F17.9°C 21.2°F-6.0°C 19% Calm Calm -- 29.73 in1006.8 mb 0.00 in0.0 mm 0.00 in0.0 mm 0.00 in0.0 mm
06:21 AM 64.0°F17.8°C 19.7°F-6.8°C 18% Calm Calm 2.0 mph3.2 kmh 29.73 in1006.8 mb 0.00 in0.0 mm 0.00 in0.0 mm 0.00 in0.0 mm
06:16 AM 63.4°F17.4°C 19.2°F-7.1°C 18% 2.0 mph NE3.2 kmh NE 4.0 mph6.4 kmh 29.73 in1006.8 mb 0.00 in0.0 mm 0.00 in0.0 mm 0.00 in0.0 mm
06:11 AM 62.9°F17.2°C 18.8°F-7.3°C 18% 3.0 mph NE4.8 kmh NE 4.0 mph6.4 kmh 29.71 in1006.1 mb 0.00 in0.0 mm 0.00 in0.0 mm 0.00 in0.0 mm
06:06 AM 62.3°F16.8°C 18.3°F-7.6°C 18% 4.0 mph NE6.4 kmh NE 4.0 mph6.4 kmh 29.71 in1006.1 mb 0.00 in0.0 mm 0.00 in0.0 mm 0.00 in0.0 mm
06:01 AM 61.5°F16.4°C 17.6°F-8.0°C 18% Calm Calm 1.0 mph1.6 kmh 29.71 in1006.1 mb 0.00 in0.0 mm 0.00 in0.0 mm 0.00 in0.0 mm
05:56 AM 61.2°F16.2°C 17.4°F-8.1°C 18% 1.0 mph NE1.6 kmh NE 2.0 mph3.2 kmh 29.72 in1006.4 mb 0.00 in0.0 mm 0.00 in0.0 mm 0.00 in0.0 mm
05:51 AM 60.9°F16.1°C 18.4°F-7.6°C 19% 1.0 mph NE1.6 kmh NE 2.0 mph3.2 kmh 29.72 in1006.4 mb 0.00 in0.0 mm 0.00 in0.0 mm 0.00 in0.0 mm
05:46 AM 60.7°F15.9°C 18.2°F-7.7°C 19% Calm Calm 1.0 mph1.6 kmh 29.72 in1006.4 mb 0.00 in0.0 mm 0.00 in0.0 mm 0.00 in0.0 mm
05:41 AM 60.7°F15.9°C 18.2°F-7.7°C 19% Calm Calm 4.0 mph6.4 kmh 29.71 in1006.1 mb 0.00 in0.0 mm 0.00 in0.0 mm 0.00 in0.0 mm
05:36 AM 61.0°F16.1°C 18.5°F-7.5°C 19% 2.0 mph NE3.2 kmh NE 4.0 mph6.4 kmh 29.71 in1006.1 mb 0.00 in0.0 mm 0.00 in0.0 mm 0.00 in0.0 mm
05:31 AM 61.3°F16.3°C 18.7°F-7.4°C 19% 1.0 mph NE1.6 kmh NE 4.0 mph6.4 kmh 29.71 in1006.1 mb 0.00 in0.0 mm 0.00 in0.0 mm 0.00 in0.0 mm
05:26 AM 61.6°F16.4°C 17.7°F-7.9°C 18% Calm Calm 1.0 mph1.6 kmh 29.71 in1006.1 mb 0.00 in0.0 mm 0.00 in0.0 mm 0.00 in0.0 mm
05:21 AM 61.8°F16.6°C 19.1°F-7.2°C 19% 1.0 mph NE1.6 kmh NE 3.0 mph4.8 kmh 29.71 in1006.1 mb 0.00 in0.0 mm 0.00 in0.0 mm 0.00 in0.0 mm
05:16 AM 61.6°F16.4°C 17.7°F-7.9°C 18% 1.0 mph NE1.6 kmh NE 3.0 mph4.8 kmh 29.71 in1006.1 mb 0.00 in0.0 mm 0.00 in0.0 mm 0.00 in0.0 mm
05:11 AM 61.5°F16.4°C 17.6°F-8.0°C 18% 1.0 mph NE1.6 kmh NE 3.0 mph4.8 kmh 29.71 in1006.1 mb 0.00 in0.0 mm 0.00 in0.0 mm 0.00 in0.0 mm
05:06 AM 61.5°F16.4°C 17.6°F-8.0°C 18% 2.0 mph E3.2 kmh E 3.0 mph4.8 kmh 29.71 in1006.1 mb 0.00 in0.0 mm 0.00 in0.0 mm 0.00 in0.0 mm
05:01 AM 61.6°F16.4°C 17.7°F-7.9°C 18% Calm Calm -- 29.71 in1006.1 mb 0.00 in0.0 mm 0.00 in0.0 mm 0.00 in0.0 mm
04:56 AM 61.8°F16.6°C 17.9°F-7.8°C 18% Calm Calm -- 29.72 in1006.4 mb 0.00 in0.0 mm 0.00 in0.0 mm 0.00 in0.0 mm
04:51 AM 62.0°F16.7°C 18.0°F-7.8°C 18% 2.0 mph E3.2 kmh E 2.0 mph3.2 kmh 29.72 in1006.4 mb 0.00 in0.0 mm 0.00 in0.0 mm 0.00 in0.0 mm
04:46 AM 62.1°F16.7°C 16.8°F-8.4°C 17% Calm Calm 1.0 mph1.6 kmh 29.72 in1006.4 mb 0.00 in0.0 mm 0.00 in0.0 mm 0.00 in0.0 mm
04:41 AM 62.4°F16.9°C 17.0°F-8.3°C 17% 1.0 mph E1.6 kmh E 7.0 mph11.3 kmh 29.72 in1006.4 mb 0.00 in0.0 mm 0.00 in0.0 mm 0.00 in0.0 mm
04:36 AM 62.7°F17.1°C 17.3°F-8.2°C 17% 2.0 mph E3.2 kmh E 4.0 mph6.4 kmh 29.72 in1006.4 mb 0.00 in0.0 mm 0.00 in0.0 mm 0.00 in0.0 mm
04:31 AM 63.2°F17.3°C 17.7°F-7.9°C 17% 3.0 mph E4.8 kmh E 4.0 mph6.4 kmh 29.72 in1006.4 mb 0.00 in0.0 mm 0.00 in0.0 mm 0.00 in0.0 mm
04:26 AM 63.5°F17.5°C 16.5°F-8.6°C 16% Calm Calm 5.0 mph8.0 kmh 29.73 in1006.8 mb 0.00 in0.0 mm 0.00 in0.0 mm 0.00 in0.0 mm
04:21 AM 63.9°F17.7°C 16.8°F-8.4°C 16% 3.0 mph N4.8 kmh N 3.0 mph4.8 kmh 29.73 in1006.8 mb 0.00 in0.0 mm 0.00 in0.0 mm 0.00 in0.0 mm
04:16 AM 63.5°F17.5°C 16.5°F-8.6°C 16% 2.0 mph ENE3.2 kmh ENE 7.0 mph11.3 kmh 29.73 in1006.8 mb 0.00 in0.0 mm 0.00 in0.0 mm 0.00 in0.0 mm
04:11 AM 62.4°F16.9°C 17.0°F-8.3°C 17% 2.0 mph NE3.2 kmh NE 4.0 mph6.4 kmh 29.72 in1006.4 mb 0.00 in0.0 mm 0.00 in0.0 mm 0.00 in0.0 mm
04:06 AM 62.4°F16.9°C 15.6°F-9.1°C 16% 1.0 mph ENE1.6 kmh ENE 4.0 mph6.4 kmh 29.72 in1006.4 mb 0.00 in0.0 mm 0.00 in0.0 mm 0.00 in0.0 mm
04:01 AM 62.6°F17.0°C 17.2°F-8.2°C 17% Calm Calm 3.0 mph4.8 kmh 29.72 in1006.4 mb 0.00 in0.0 mm 0.00 in0.0 mm 0.00 in0.0 mm
03:56 AM 62.7°F17.1°C 17.3°F-8.2°C 17% 1.0 mph ENE1.6 kmh ENE 3.0 mph4.8 kmh 29.73 in1006.8 mb 0.00 in0.0 mm 0.00 in0.0 mm 0.00 in0.0 mm
03:51 AM 63.2°F17.3°C 16.3°F-8.7°C 16% Calm Calm -- 29.73 in1006.8 mb 0.00 in0.0 mm 0.00 in0.0 mm 0.00 in0.0 mm
03:46 AM 63.9°F17.7°C 16.8°F-8.4°C 16% 1.0 mph ENE1.6 kmh ENE 4.0 mph6.4 kmh 29.73 in1006.8 mb 0.00 in0.0 mm 0.00 in0.0 mm 0.00 in0.0 mm
03:41 AM 64.5°F18.1°C 17.3°F-8.2°C 16% 1.0 mph ENE1.6 kmh ENE 3.0 mph4.8 kmh 29.72 in1006.4 mb 0.00 in0.0 mm 0.00 in0.0 mm 0.00 in0.0 mm
03:36 AM 64.8°F18.2°C 16.1°F-8.8°C 15% Calm Calm -- 29.72 in1006.4 mb 0.00 in0.0 mm 0.00 in0.0 mm 0.00 in0.0 mm
03:31 AM 64.7°F18.2°C 16.0°F-8.9°C 15% Calm Calm -- 29.72 in1006.4 mb 0.00 in0.0 mm 0.00 in0.0 mm 0.00 in0.0 mm
03:26 AM 64.3°F17.9°C 15.7°F-9.1°C 15% 2.0 mph ENE3.2 kmh ENE 3.0 mph4.8 kmh 29.72 in1006.4 mb 0.00 in0.0 mm 0.00 in0.0 mm 0.00 in0.0 mm
03:21 AM 64.3°F17.9°C 15.7°F-9.1°C 15% Calm Calm 1.0 mph1.6 kmh 29.72 in1006.4 mb 0.00 in0.0 mm 0.00 in0.0 mm 0.00 in0.0 mm
03:16 AM 64.5°F18.1°C 15.8°F-9.0°C 15% Calm Calm 3.0 mph4.8 kmh 29.72 in1006.4 mb 0.00 in0.0 mm 0.00 in0.0 mm 0.00 in0.0 mm
03:11 AM 64.5°F18.1°C 17.3°F-8.2°C 16% Calm Calm 3.0 mph4.8 kmh 29.72 in1006.4 mb 0.00 in0.0 mm 0.00 in0.0 mm 0.00 in0.0 mm
03:06 AM 64.5°F18.1°C 17.3°F-8.2°C 16% 1.0 mph ENE1.6 kmh ENE 3.0 mph4.8 kmh 29.72 in1006.4 mb 0.00 in0.0 mm 0.00 in0.0 mm 0.00 in0.0 mm
03:01 AM 64.8°F18.2°C 17.6°F-8.0°C 16% 2.0 mph ENE3.2 kmh ENE 2.0 mph3.2 kmh 29.72 in1006.4 mb 0.00 in0.0 mm 0.00 in0.0 mm 0.00 in0.0 mm
02:56 AM 65.3°F18.5°C 16.5°F-8.6°C 15% Calm Calm 2.0 mph3.2 kmh 29.72 in1006.4 mb 0.00 in0.0 mm 0.00 in0.0 mm 0.00 in0.0 mm
02:51 AM 65.8°F18.8°C 18.4°F-7.6°C 16% 1.0 mph ENE1.6 kmh ENE 2.0 mph3.2 kmh 29.72 in1006.4 mb 0.00 in0.0 mm 0.00 in0.0 mm 0.00 in0.0 mm
02:46 AM 66.1°F18.9°C 17.1°F-8.3°C 15% Calm Calm 5.0 mph8.0 kmh 29.72 in1006.4 mb 0.00 in0.0 mm 0.00 in0.0 mm 0.00 in0.0 mm
02:41 AM 66.3°F19.1°C 17.3°F-8.2°C 15% 1.0 mph ENE1.6 kmh ENE 5.0 mph8.0 kmh 29.72 in1006.4 mb 0.00 in0.0 mm 0.00 in0.0 mm 0.00 in0.0 mm
02:36 AM 66.4°F19.1°C 17.4°F-8.1°C 15% 1.0 mph ENE1.6 kmh ENE 5.0 mph8.0 kmh 29.72 in1006.4 mb 0.00 in0.0 mm 0.00 in0.0 mm 0.00 in0.0 mm
02:32 AM 66.3°F19.1°C 15.7°F-9.1°C 14% 2.0 mph ENE3.2 kmh ENE 5.0 mph8.0 kmh 29.72 in1006.4 mb 0.00 in0.0 mm 0.00 in0.0 mm 0.00 in0.0 mm
02:27 AM 66.0°F18.9°C 15.5°F-9.2°C 14% 2.0 mph NE3.2 kmh NE 3.0 mph4.8 kmh 29.73 in1006.8 mb 0.00 in0.0 mm 0.00 in0.0 mm 0.00 in0.0 mm
02:22 AM 66.0°F18.9°C 15.5°F-9.2°C 14% 1.0 mph NE1.6 kmh NE 3.0 mph4.8 kmh 29.73 in1006.8 mb 0.00 in0.0 mm 0.00 in0.0 mm 0.00 in0.0 mm
02:17 AM 66.1°F18.9°C 15.5°F-9.2°C 14% Calm Calm 3.0 mph4.8 kmh 29.73 in1006.8 mb 0.00 in0.0 mm 0.00 in0.0 mm 0.00 in0.0 mm
02:12 AM 66.4°F19.1°C 15.8°F-9.0°C 14% Calm Calm 3.0 mph4.8 kmh 29.73 in1006.8 mb 0.00 in0.0 mm 0.00 in0.0 mm 0.00 in0.0 mm
02:07 AM 66.4°F19.1°C 15.8°F-9.0°C 14% Calm Calm 3.0 mph4.8 kmh 29.73 in1006.8 mb 0.00 in0.0 mm 0.00 in0.0 mm 0.00 in0.0 mm
02:02 AM 66.8°F19.3°C 16.1°F-8.8°C 14% Calm Calm -- 29.73 in1006.8 mb 0.00 in0.0 mm 0.00 in0.0 mm 0.00 in0.0 mm
01:57 AM 66.9°F19.4°C 16.2°F-8.8°C 14% 1.0 mph NE1.6 kmh NE 5.0 mph8.0 kmh 29.73 in1006.8 mb 0.00 in0.0 mm 0.00 in0.0 mm 0.00 in0.0 mm
01:52 AM 66.9°F19.4°C 17.8°F-7.9°C 15% 3.0 mph N4.8 kmh N 5.0 mph8.0 kmh 29.73 in1006.8 mb 0.00 in0.0 mm 0.00 in0.0 mm 0.00 in0.0 mm
01:47 AM 66.9°F19.4°C 16.2°F-8.8°C 14% 1.0 mph N1.6 kmh N 5.0 mph8.0 kmh 29.73 in1006.8 mb 0.00 in0.0 mm 0.00 in0.0 mm 0.00 in0.0 mm
01:42 AM 67.1°F19.5°C 16.3°F-8.7°C 14% Calm Calm -- 29.73 in1006.8 mb 0.00 in0.0 mm 0.00 in0.0 mm 0.00 in0.0 mm
01:37 AM 67.3°F19.6°C 14.8°F-9.6°C 13% 1.0 mph N1.6 kmh N 1.0 mph1.6 kmh 29.73 in1006.8 mb 0.00 in0.0 mm 0.00 in0.0 mm 0.00 in0.0 mm
01:32 AM 67.4°F19.7°C 14.9°F-9.5°C 13% 1.0 mph N1.6 kmh N 2.0 mph3.2 kmh 29.73 in1006.8 mb 0.00 in0.0 mm 0.00 in0.0 mm 0.00 in0.0 mm
01:27 AM 67.4°F19.7°C 14.9°F-9.5°C 13% 1.0 mph N1.6 kmh N 2.0 mph3.2 kmh 29.73 in1006.8 mb 0.00 in0.0 mm 0.00 in0.0 mm 0.00 in0.0 mm
01:22 AM 67.6°F19.8°C 15.0°F-9.4°C 13% 1.0 mph N1.6 kmh N 2.0 mph3.2 kmh 29.73 in1006.8 mb 0.00 in0.0 mm 0.00 in0.0 mm 0.00 in0.0 mm
01:17 AM 67.8°F19.9°C 15.2°F-9.3°C 13% Calm Calm -- 29.73 in1006.8 mb 0.00 in0.0 mm 0.00 in0.0 mm 0.00 in0.0 mm
01:12 AM 67.8°F19.9°C 15.2°F-9.3°C 13% 1.0 mph N1.6 kmh N 2.0 mph3.2 kmh 29.73 in1006.8 mb 0.00 in0.0 mm 0.00 in0.0 mm 0.00 in0.0 mm
01:07 AM 67.8°F19.9°C 15.2°F-9.3°C 13% 1.0 mph N1.6 kmh N 2.0 mph3.2 kmh 29.73 in1006.8 mb 0.00 in0.0 mm 0.00 in0.0 mm 0.00 in0.0 mm
01:02 AM 68.1°F20.1°C 15.4°F-9.2°C 13% Calm Calm -- 29.73 in1006.8 mb 0.00 in0.0 mm 0.00 in0.0 mm 0.00 in0.0 mm
12:57 AM 68.4°F20.2°C 15.6°F-9.1°C 13% Calm Calm 2.0 mph3.2 kmh 29.72 in1006.4 mb 0.00 in0.0 mm 0.00 in0.0 mm 0.00 in0.0 mm
12:52 AM 68.6°F20.3°C 15.8°F-9.0°C 13% Calm Calm -- 29.72 in1006.4 mb 0.00 in0.0 mm 0.00 in0.0 mm 0.00 in0.0 mm
12:47 AM 69.1°F20.6°C 16.2°F-8.8°C 13% 2.0 mph N3.2 kmh N 2.0 mph3.2 kmh 29.72 in1006.4 mb 0.00 in0.0 mm 0.00 in0.0 mm 0.00 in0.0 mm
12:42 AM 69.8°F21.0°C 16.7°F-8.5°C 13% Calm Calm -- 29.72 in1006.4 mb 0.00 in0.0 mm 0.00 in0.0 mm 0.00 in0.0 mm
12:37 AM 70.3°F21.3°C 17.1°F-8.3°C 13% 1.0 mph N1.6 kmh N 2.0 mph3.2 kmh 29.72 in1006.4 mb 0.00 in0.0 mm 0.00 in0.0 mm 0.00 in0.0 mm
12:32 AM 70.6°F21.4°C 15.5°F-9.2°C 12% Calm Calm 2.0 mph3.2 kmh 29.72 in1006.4 mb 0.00 in0.0 mm 0.00 in0.0 mm 0.00 in0.0 mm
12:27 AM 70.4°F21.3°C 15.4°F-9.2°C 12% Calm Calm 1.0 mph1.6 kmh 29.72 in1006.4 mb 0.00 in0.0 mm 0.00 in0.0 mm 0.00 in0.0 mm
12:22 AM 70.3°F21.3°C 15.3°F-9.3°C 12% 2.0 mph N3.2 kmh N 3.0 mph4.8 kmh 29.72 in1006.4 mb 0.00 in0.0 mm 0.00 in0.0 mm 0.00 in0.0 mm
12:17 AM 70.4°F21.3°C 15.4°F-9.2°C 12% 1.0 mph N1.6 kmh N 3.0 mph4.8 kmh 29.72 in1006.4 mb 0.00 in0.0 mm 0.00 in0.0 mm 0.00 in0.0 mm
12:12 AM 70.8°F21.6°C 15.7°F-9.1°C 12% Calm Calm 3.0 mph4.8 kmh 29.73 in1006.8 mb 0.00 in0.0 mm 0.00 in0.0 mm 0.00 in0.0 mm
12:07 AM 71.3°F21.8°C 14.1°F-9.9°C 11% Calm Calm 5.0 mph8.0 kmh 29.73 in1006.8 mb 0.00 in0.0 mm 0.00 in0.0 mm 0.00 in0.0 mm
12:02 AM 71.5°F21.9°C 16.2°F-8.8°C 12% 2.0 mph NE3.2 kmh NE 5.0 mph8.0 kmh 29.73 in1006.8 mb 0.00 in0.0 mm 0.00 in0.0 mm 0.00 in0.0 mm